sensor_id;sensor_type;location;lat;lon;timestamp;P1;durP1;ratioP1;P2;durP2;ratioP2
4957;SDS011;2494;51.872;9.688;2023-08-17T00:00:07;4.73;;;4.43;;
4957;SDS011;2494;51.872;9.688;2023-08-17T00:02:54;6.03;;;4.70;;
4957;SDS011;2494;51.872;9.688;2023-08-17T00:05:39;7.30;;;5.30;;
4957;SDS011;2494;51.872;9.688;2023-08-17T00:08:24;6.37;;;4.67;;
4957;SDS011;2494;51.872;9.688;2023-08-17T00:11:10;5.20;;;4.77;;
4957;SDS011;2494;51.872;9.688;2023-08-17T00:13:55;5.57;;;5.17;;
4957;SDS011;2494;51.872;9.688;2023-08-17T00:16:40;5.50;;;5.00;;
4957;SDS011;2494;51.872;9.688;2023-08-17T00:19:26;6.47;;;5.07;;
4957;SDS011;2494;51.872;9.688;2023-08-17T00:22:11;10.63;;;6.30;;
4957;SDS011;2494;51.872;9.688;2023-08-17T00:24:56;5.90;;;5.27;;
4957;SDS011;2494;51.872;9.688;2023-08-17T00:27:42;7.53;;;5.20;;
4957;SDS011;2494;51.872;9.688;2023-08-17T00:30:27;6.40;;;5.90;;
4957;SDS011;2494;51.872;9.688;2023-08-17T00:33:12;6.70;;;5.50;;
4957;SDS011;2494;51.872;9.688;2023-08-17T00:35:57;7.47;;;6.00;;
4957;SDS011;2494;51.872;9.688;2023-08-17T00:38:42;7.50;;;5.93;;
4957;SDS011;2494;51.872;9.688;2023-08-17T00:41:27;7.27;;;6.43;;
4957;SDS011;2494;51.872;9.688;2023-08-17T00:44:15;6.33;;;5.73;;
4957;SDS011;2494;51.872;9.688;2023-08-17T00:47:00;7.60;;;6.30;;
4957;SDS011;2494;51.872;9.688;2023-08-17T00:49:45;8.07;;;6.60;;
4957;SDS011;2494;51.872;9.688;2023-08-17T00:52:30;6.80;;;6.33;;
4957;SDS011;2494;51.872;9.688;2023-08-17T00:55:15;7.80;;;7.20;;
4957;SDS011;2494;51.872;9.688;2023-08-17T00:58:00;7.70;;;7.07;;
4957;SDS011;2494;51.872;9.688;2023-08-17T01:00:47;8.10;;;7.43;;
4957;SDS011;2494;51.872;9.688;2023-08-17T01:03:32;9.20;;;8.50;;
4957;SDS011;2494;51.872;9.688;2023-08-17T01:06:17;10.47;;;9.30;;
4957;SDS011;2494;51.872;9.688;2023-08-17T01:09:03;10.87;;;9.80;;
4957;SDS011;2494;51.872;9.688;2023-08-17T01:11:49;16.27;;;9.17;;
4957;SDS011;2494;51.872;9.688;2023-08-17T01:14:39;10.40;;;9.43;;
4957;SDS011;2494;51.872;9.688;2023-08-17T01:17:28;13.30;;;11.43;;
4957;SDS011;2494;51.872;9.688;2023-08-17T01:20:14;13.07;;;11.40;;
4957;SDS011;2494;51.872;9.688;2023-08-17T01:23:04;13.30;;;12.07;;
4957;SDS011;2494;51.872;9.688;2023-08-17T01:25:49;15.77;;;12.00;;
4957;SDS011;2494;51.872;9.688;2023-08-17T01:28:34;14.43;;;12.30;;
4957;SDS011;2494;51.872;9.688;2023-08-17T01:31:19;14.97;;;12.17;;
4957;SDS011;2494;51.872;9.688;2023-08-17T01:34:06;13.80;;;12.57;;
4957;SDS011;2494;51.872;9.688;2023-08-17T01:36:53;12.83;;;11.73;;
4957;SDS011;2494;51.872;9.688;2023-08-17T01:39:43;14.03;;;11.40;;
4957;SDS011;2494;51.872;9.688;2023-08-17T01:42:28;12.40;;;11.50;;
4957;SDS011;2494;51.872;9.688;2023-08-17T01:45:13;13.53;;;12.23;;
4957;SDS011;2494;51.872;9.688;2023-08-17T01:47:59;13.40;;;12.30;;
4957;SDS011;2494;51.872;9.688;2023-08-17T01:50:44;13.20;;;11.90;;
4957;SDS011;2494;51.872;9.688;2023-08-17T01:53:29;13.40;;;12.20;;
4957;SDS011;2494;51.872;9.688;2023-08-17T01:56:15;14.80;;;12.97;;
4957;SDS011;2494;51.872;9.688;2023-08-17T01:59:00;13.93;;;12.93;;
4957;SDS011;2494;51.872;9.688;2023-08-17T02:01:45;14.00;;;12.80;;
4957;SDS011;2494;51.872;9.688;2023-08-17T02:04:30;13.60;;;12.50;;
4957;SDS011;2494;51.872;9.688;2023-08-17T02:07:15;14.93;;;13.43;;
4957;SDS011;2494;51.872;9.688;2023-08-17T02:09:59;15.27;;;13.93;;
4957;SDS011;2494;51.872;9.688;2023-08-17T02:12:46;14.17;;;12.70;;
4957;SDS011;2494;51.872;9.688;2023-08-17T02:15:31;13.90;;;12.70;;
4957;SDS011;2494;51.872;9.688;2023-08-17T02:18:16;13.97;;;12.43;;
4957;SDS011;2494;51.872;9.688;2023-08-17T02:21:01;16.57;;;14.70;;
4957;SDS011;2494;51.872;9.688;2023-08-17T02:23:46;14.03;;;12.63;;
4957;SDS011;2494;51.872;9.688;2023-08-17T02:26:31;14.13;;;12.80;;
4957;SDS011;2494;51.872;9.688;2023-08-17T02:29:17;13.10;;;11.83;;
4957;SDS011;2494;51.872;9.688;2023-08-17T02:32:02;12.80;;;11.70;;
4957;SDS011;2494;51.872;9.688;2023-08-17T02:34:47;13.23;;;12.20;;
4957;SDS011;2494;51.872;9.688;2023-08-17T02:37:32;13.70;;;12.60;;
4957;SDS011;2494;51.872;9.688;2023-08-17T02:40:17;14.83;;;13.80;;
4957;SDS011;2494;51.872;9.688;2023-08-17T02:43:02;14.20;;;13.00;;
4957;SDS011;2494;51.872;9.688;2023-08-17T02:45:49;15.10;;;13.37;;
4957;SDS011;2494;51.872;9.688;2023-08-17T02:48:34;14.20;;;12.90;;
4957;SDS011;2494;51.872;9.688;2023-08-17T02:51:19;13.93;;;12.73;;
4957;SDS011;2494;51.872;9.688;2023-08-17T02:54:04;14.57;;;13.37;;
4957;SDS011;2494;51.872;9.688;2023-08-17T02:56:49;15.17;;;13.60;;
4957;SDS011;2494;51.872;9.688;2023-08-17T02:59:34;15.30;;;13.80;;
4957;SDS011;2494;51.872;9.688;2023-08-17T03:02:20;15.20;;;13.87;;
4957;SDS011;2494;51.872;9.688;2023-08-17T03:05:05;16.20;;;13.67;;
4957;SDS011;2494;51.872;9.688;2023-08-17T03:07:51;15.70;;;14.30;;
4957;SDS011;2494;51.872;9.688;2023-08-17T03:10:36;17.03;;;13.67;;
4957;SDS011;2494;51.872;9.688;2023-08-17T03:13:21;15.63;;;14.13;;
4957;SDS011;2494;51.872;9.688;2023-08-17T03:16:06;14.60;;;13.20;;
4957;SDS011;2494;51.872;9.688;2023-08-17T03:18:53;16.40;;;14.60;;
4957;SDS011;2494;51.872;9.688;2023-08-17T03:21:37;16.07;;;14.73;;
4957;SDS011;2494;51.872;9.688;2023-08-17T03:24:22;16.17;;;14.67;;
4957;SDS011;2494;51.872;9.688;2023-08-17T03:27:08;17.60;;;15.70;;
4957;SDS011;2494;51.872;9.688;2023-08-17T03:29:53;14.53;;;13.13;;
4957;SDS011;2494;51.872;9.688;2023-08-17T03:32:37;15.30;;;13.83;;
4957;SDS011;2494;51.872;9.688;2023-08-17T03:35:24;19.03;;;14.03;;
4957;SDS011;2494;51.872;9.688;2023-08-17T03:38:09;15.43;;;13.93;;
4957;SDS011;2494;51.872;9.688;2023-08-17T03:40:54;16.10;;;14.70;;
4957;SDS011;2494;51.872;9.688;2023-08-17T03:43:39;16.63;;;14.93;;
4957;SDS011;2494;51.872;9.688;2023-08-17T03:46:23;16.47;;;15.07;;
4957;SDS011;2494;51.872;9.688;2023-08-17T03:49:08;16.93;;;15.43;;
4957;SDS011;2494;51.872;9.688;2023-08-17T03:51:55;16.97;;;15.40;;
4957;SDS011;2494;51.872;9.688;2023-08-17T03:54:39;17.10;;;15.60;;
4957;SDS011;2494;51.872;9.688;2023-08-17T03:57:24;16.40;;;15.10;;
4957;SDS011;2494;51.872;9.688;2023-08-17T04:00:10;17.93;;;16.40;;
4957;SDS011;2494;51.872;9.688;2023-08-17T04:02:55;17.77;;;15.97;;
4957;SDS011;2494;51.872;9.688;2023-08-17T04:05:40;19.70;;;16.70;;
4957;SDS011;2494;51.872;9.688;2023-08-17T04:08:26;19.03;;;17.20;;
4957;SDS011;2494;51.872;9.688;2023-08-17T04:11:11;18.50;;;16.60;;
4957;SDS011;2494;51.872;9.688;2023-08-17T04:13:56;19.60;;;16.47;;
4957;SDS011;2494;51.872;9.688;2023-08-17T04:16:41;17.70;;;16.03;;
4957;SDS011;2494;51.872;9.688;2023-08-17T04:19:26;16.77;;;15.37;;
4957;SDS011;2494;51.872;9.688;2023-08-17T04:22:11;18.60;;;16.80;;
4957;SDS011;2494;51.872;9.688;2023-08-17T04:24:57;19.33;;;17.53;;
4957;SDS011;2494;51.872;9.688;2023-08-17T04:27:42;18.63;;;16.97;;
4957;SDS011;2494;51.872;9.688;2023-08-17T04:30:27;19.27;;;17.47;;
4957;SDS011;2494;51.872;9.688;2023-08-17T04:33:12;18.20;;;16.60;;
4957;SDS011;2494;51.872;9.688;2023-08-17T04:35:57;21.00;;;17.80;;
4957;SDS011;2494;51.872;9.688;2023-08-17T04:38:44;18.27;;;16.67;;
4957;SDS011;2494;51.872;9.688;2023-08-17T04:41:31;17.53;;;15.90;;
4957;SDS011;2494;51.872;9.688;2023-08-17T04:44:16;18.53;;;16.97;;
4957;SDS011;2494;51.872;9.688;2023-08-17T04:47:01;19.70;;;17.87;;
4957;SDS011;2494;51.872;9.688;2023-08-17T04:49:46;19.57;;;17.60;;
4957;SDS011;2494;51.872;9.688;2023-08-17T04:52:31;21.67;;;19.43;;
4957;SDS011;2494;51.872;9.688;2023-08-17T04:55:16;16.60;;;15.03;;
4957;SDS011;2494;51.872;9.688;2023-08-17T04:58:03;20.67;;;18.80;;
4957;SDS011;2494;51.872;9.688;2023-08-17T05:00:48;20.53;;;18.10;;
4957;SDS011;2494;51.872;9.688;2023-08-17T05:03:33;17.77;;;16.07;;
4957;SDS011;2494;51.872;9.688;2023-08-17T05:06:18;15.80;;;14.27;;
4957;SDS011;2494;51.872;9.688;2023-08-17T05:09:03;12.73;;;11.63;;
4957;SDS011;2494;51.872;9.688;2023-08-17T05:11:49;12.80;;;11.60;;
4957;SDS011;2494;51.872;9.688;2023-08-17T05:14:35;12.80;;;11.70;;
4957;SDS011;2494;51.872;9.688;2023-08-17T05:17:20;15.13;;;13.20;;
4957;SDS011;2494;51.872;9.688;2023-08-17T05:20:05;13.90;;;12.60;;
4957;SDS011;2494;51.872;9.688;2023-08-17T05:22:51;14.13;;;12.77;;
4957;SDS011;2494;51.872;9.688;2023-08-17T05:25:36;14.00;;;12.80;;
4957;SDS011;2494;51.872;9.688;2023-08-17T05:28:21;13.63;;;12.47;;
4957;SDS011;2494;51.872;9.688;2023-08-17T05:31:08;14.30;;;13.10;;
4957;SDS011;2494;51.872;9.688;2023-08-17T05:33:53;9.73;;;8.87;;
4957;SDS011;2494;51.872;9.688;2023-08-17T05:36:38;11.20;;;10.33;;
4957;SDS011;2494;51.872;9.688;2023-08-17T05:39:24;10.87;;;9.90;;
4957;SDS011;2494;51.872;9.688;2023-08-17T05:42:09;12.17;;;11.27;;
4957;SDS011;2494;51.872;9.688;2023-08-17T05:44:54;11.63;;;10.83;;
4957;SDS011;2494;51.872;9.688;2023-08-17T05:47:41;12.03;;;10.93;;
4957;SDS011;2494;51.872;9.688;2023-08-17T05:50:26;11.40;;;10.50;;
4957;SDS011;2494;51.872;9.688;2023-08-17T05:53:11;9.03;;;8.43;;
4957;SDS011;2494;51.872;9.688;2023-08-17T05:55:56;10.80;;;10.00;;
4957;SDS011;2494;51.872;9.688;2023-08-17T05:58:41;9.73;;;9.03;;
4957;SDS011;2494;51.872;9.688;2023-08-17T06:01:26;9.60;;;8.97;;
4957;SDS011;2494;51.872;9.688;2023-08-17T06:04:13;9.40;;;8.80;;
4957;SDS011;2494;51.872;9.688;2023-08-17T06:06:58;9.23;;;8.63;;
4957;SDS011;2494;51.872;9.688;2023-08-17T06:09:43;9.30;;;8.50;;
4957;SDS011;2494;51.872;9.688;2023-08-17T06:12:28;8.87;;;8.27;;
4957;SDS011;2494;51.872;9.688;2023-08-17T06:15:13;8.90;;;8.20;;
4957;SDS011;2494;51.872;9.688;2023-08-17T06:17:58;11.87;;;7.40;;
4957;SDS011;2494;51.872;9.688;2023-08-17T06:20:46;7.87;;;7.17;;
4957;SDS011;2494;51.872;9.688;2023-08-17T06:23:34;7.70;;;7.20;;
4957;SDS011;2494;51.872;9.688;2023-08-17T06:26:19;6.43;;;6.03;;
4957;SDS011;2494;51.872;9.688;2023-08-17T06:29:04;6.33;;;5.93;;
4957;SDS011;2494;51.872;9.688;2023-08-17T06:31:49;6.07;;;5.67;;
4957;SDS011;2494;51.872;9.688;2023-08-17T06:34:34;5.70;;;5.40;;
4957;SDS011;2494;51.872;9.688;2023-08-17T06:37:20;7.83;;;7.17;;
4957;SDS011;2494;51.872;9.688;2023-08-17T06:40:06;7.27;;;6.77;;
4957;SDS011;2494;51.872;9.688;2023-08-17T06:42:52;7.50;;;7.00;;
4957;SDS011;2494;51.872;9.688;2023-08-17T06:45:38;7.33;;;6.83;;
4957;SDS011;2494;51.872;9.688;2023-08-17T06:48:24;8.20;;;7.60;;
4957;SDS011;2494;51.872;9.688;2023-08-17T06:51:10;7.60;;;6.90;;
4957;SDS011;2494;51.872;9.688;2023-08-17T06:53:56;6.87;;;6.30;;
4957;SDS011;2494;51.872;9.688;2023-08-17T06:56:42;7.40;;;6.80;;
4957;SDS011;2494;51.872;9.688;2023-08-17T06:59:27;7.50;;;7.00;;
4957;SDS011;2494;51.872;9.688;2023-08-17T07:02:12;7.20;;;6.70;;
4957;SDS011;2494;51.872;9.688;2023-08-17T07:04:57;7.57;;;7.17;;
4957;SDS011;2494;51.872;9.688;2023-08-17T07:07:42;7.50;;;7.00;;
4957;SDS011;2494;51.872;9.688;2023-08-17T07:10:29;6.93;;;6.33;;
4957;SDS011;2494;51.872;9.688;2023-08-17T07:13:14;6.97;;;6.57;;
4957;SDS011;2494;51.872;9.688;2023-08-17T07:16:03;7.20;;;6.80;;
4957;SDS011;2494;51.872;9.688;2023-08-17T07:18:48;7.80;;;7.23;;
4957;SDS011;2494;51.872;9.688;2023-08-17T07:21:34;9.20;;;8.40;;
4957;SDS011;2494;51.872;9.688;2023-08-17T07:24:19;8.67;;;7.97;;
4957;SDS011;2494;51.872;9.688;2023-08-17T07:27:05;7.50;;;7.00;;
4957;SDS011;2494;51.872;9.688;2023-08-17T07:29:51;7.57;;;7.07;;
4957;SDS011;2494;51.872;9.688;2023-08-17T07:32:36;7.57;;;7.17;;
4957;SDS011;2494;51.872;9.688;2023-08-17T07:35:21;7.00;;;6.60;;
4957;SDS011;2494;51.872;9.688;2023-08-17T07:38:06;6.70;;;6.10;;
4957;SDS011;2494;51.872;9.688;2023-08-17T07:40:51;5.87;;;5.53;;
4957;SDS011;2494;51.872;9.688;2023-08-17T07:43:38;5.73;;;5.43;;
4957;SDS011;2494;51.872;9.688;2023-08-17T07:46:23;6.13;;;5.83;;
4957;SDS011;2494;51.872;9.688;2023-08-17T07:49:08;6.37;;;5.90;;
4957;SDS011;2494;51.872;9.688;2023-08-17T07:51:53;6.03;;;5.73;;
4957;SDS011;2494;51.872;9.688;2023-08-17T07:54:38;5.40;;;5.00;;
4957;SDS011;2494;51.872;9.688;2023-08-17T07:57:23;5.87;;;5.30;;
4957;SDS011;2494;51.872;9.688;2023-08-17T08:00:11;7.40;;;5.00;;
4957;SDS011;2494;51.872;9.688;2023-08-17T08:02:56;4.67;;;4.37;;
4957;SDS011;2494;51.872;9.688;2023-08-17T08:05:41;6.00;;;4.60;;
4957;SDS011;2494;51.872;9.688;2023-08-17T08:08:27;3.77;;;3.47;;
4957;SDS011;2494;51.872;9.688;2023-08-17T08:11:12;3.57;;;3.23;;
4957;SDS011;2494;51.872;9.688;2023-08-17T08:13:57;4.17;;;3.27;;
4957;SDS011;2494;51.872;9.688;2023-08-17T08:16:44;2.90;;;2.70;;
4957;SDS011;2494;51.872;9.688;2023-08-17T08:19:30;3.70;;;3.40;;
4957;SDS011;2494;51.872;9.688;2023-08-17T08:22:17;3.50;;;3.03;;
4957;SDS011;2494;51.872;9.688;2023-08-17T08:25:02;5.50;;;2.90;;
4957;SDS011;2494;51.872;9.688;2023-08-17T08:27:47;3.30;;;3.10;;
4957;SDS011;2494;51.872;9.688;2023-08-17T08:30:33;3.30;;;3.10;;
4957;SDS011;2494;51.872;9.688;2023-08-17T08:33:19;4.43;;;4.23;;
4957;SDS011;2494;51.872;9.688;2023-08-17T08:36:05;4.60;;;4.30;;
4957;SDS011;2494;51.872;9.688;2023-08-17T08:38:51;4.57;;;3.57;;
4957;SDS011;2494;51.872;9.688;2023-08-17T08:41:36;4.70;;;4.27;;
4957;SDS011;2494;51.872;9.688;2023-08-17T08:44:22;4.20;;;3.90;;
4957;SDS011;2494;51.872;9.688;2023-08-17T08:47:07;3.90;;;3.53;;
4957;SDS011;2494;51.872;9.688;2023-08-17T08:49:58;5.47;;;5.07;;
4957;SDS011;2494;51.872;9.688;2023-08-17T08:52:50;5.97;;;4.90;;
4957;SDS011;2494;51.872;9.688;2023-08-17T08:55:39;4.30;;;4.00;;
4957;SDS011;2494;51.872;9.688;2023-08-17T08:58:26;5.13;;;4.10;;
4957;SDS011;2494;51.872;9.688;2023-08-17T09:01:12;3.80;;;3.60;;
4957;SDS011;2494;51.872;9.688;2023-08-17T09:03:58;3.40;;;3.20;;
4957;SDS011;2494;51.872;9.688;2023-08-17T09:06:46;3.70;;;3.50;;
4957;SDS011;2494;51.872;9.688;2023-08-17T09:09:32;4.00;;;3.80;;
4957;SDS011;2494;51.872;9.688;2023-08-17T09:12:17;3.50;;;3.20;;
4957;SDS011;2494;51.872;9.688;2023-08-17T09:15:03;3.43;;;3.23;;
4957;SDS011;2494;51.872;9.688;2023-08-17T09:17:49;3.47;;;3.17;;
4957;SDS011;2494;51.872;9.688;2023-08-17T09:20:36;3.60;;;3.10;;
4957;SDS011;2494;51.872;9.688;2023-08-17T09:23:24;2.60;;;2.40;;
4957;SDS011;2494;51.872;9.688;2023-08-17T09:26:09;1.80;;;1.70;;
4957;SDS011;2494;51.872;9.688;2023-08-17T09:28:54;2.20;;;2.00;;
4957;SDS011;2494;51.872;9.688;2023-08-17T09:31:40;2.20;;;2.00;;
4957;SDS011;2494;51.872;9.688;2023-08-17T09:34:25;2.07;;;1.90;;
4957;SDS011;2494;51.872;9.688;2023-08-17T09:37:11;2.20;;;2.00;;
4957;SDS011;2494;51.872;9.688;2023-08-17T09:39:59;2.10;;;1.97;;
4957;SDS011;2494;51.872;9.688;2023-08-17T09:42:48;1.77;;;1.67;;
4957;SDS011;2494;51.872;9.688;2023-08-17T09:45:35;2.80;;;1.80;;
4957;SDS011;2494;51.872;9.688;2023-08-17T09:48:20;1.60;;;1.50;;
4957;SDS011;2494;51.872;9.688;2023-08-17T09:51:06;2.90;;;1.83;;
4957;SDS011;2494;51.872;9.688;2023-08-17T09:53:51;4.67;;;1.90;;
4957;SDS011;2494;51.872;9.688;2023-08-17T09:56:38;1.60;;;1.50;;
4957;SDS011;2494;51.872;9.688;2023-08-17T09:59:23;1.97;;;1.77;;
4957;SDS011;2494;51.872;9.688;2023-08-17T10:02:12;6.63;;;1.90;;
4957;SDS011;2494;51.872;9.688;2023-08-17T10:04:59;1.80;;;1.70;;
4957;SDS011;2494;51.872;9.688;2023-08-17T10:07:46;1.80;;;1.70;;
4957;SDS011;2494;51.872;9.688;2023-08-17T10:10:33;3.77;;;1.90;;
4957;SDS011;2494;51.872;9.688;2023-08-17T10:13:22;2.00;;;1.63;;
4957;SDS011;2494;51.872;9.688;2023-08-17T10:16:13;4.60;;;1.60;;
4957;SDS011;2494;51.872;9.688;2023-08-17T10:19:03;1.83;;;1.67;;
4957;SDS011;2494;51.872;9.688;2023-08-17T10:21:54;2.10;;;1.90;;
4957;SDS011;2494;51.872;9.688;2023-08-17T10:24:41;2.10;;;1.53;;
4957;SDS011;2494;51.872;9.688;2023-08-17T10:27:27;1.60;;;1.50;;
4957;SDS011;2494;51.872;9.688;2023-08-17T10:30:18;2.20;;;1.67;;
4957;SDS011;2494;51.872;9.688;2023-08-17T10:33:03;2.07;;;1.97;;
4957;SDS011;2494;51.872;9.688;2023-08-17T10:35:50;2.07;;;1.90;;
4957;SDS011;2494;51.872;9.688;2023-08-17T10:38:35;4.23;;;2.10;;
4957;SDS011;2494;51.872;9.688;2023-08-17T10:41:21;3.03;;;2.10;;
4957;SDS011;2494;51.872;9.688;2023-08-17T10:44:07;2.73;;;2.10;;
4957;SDS011;2494;51.872;9.688;2023-08-17T10:46:54;2.20;;;2.00;;
4957;SDS011;2494;51.872;9.688;2023-08-17T10:49:39;3.47;;;2.23;;
4957;SDS011;2494;51.872;9.688;2023-08-17T10:52:28;2.10;;;2.00;;
4957;SDS011;2494;51.872;9.688;2023-08-17T10:55:14;2.03;;;1.93;;
4957;SDS011;2494;51.872;9.688;2023-08-17T10:57:59;1.77;;;1.67;;
4957;SDS011;2494;51.872;9.688;2023-08-17T11:00:44;2.03;;;1.83;;
4957;SDS011;2494;51.872;9.688;2023-08-17T11:03:31;2.07;;;1.97;;
4957;SDS011;2494;51.872;9.688;2023-08-17T11:06:19;2.13;;;1.80;;
4957;SDS011;2494;51.872;9.688;2023-08-17T11:09:06;4.73;;;1.90;;
4957;SDS011;2494;51.872;9.688;2023-08-17T11:11:52;2.30;;;2.10;;
4957;SDS011;2494;51.872;9.688;2023-08-17T11:14:37;6.63;;;2.10;;
4957;SDS011;2494;51.872;9.688;2023-08-17T11:17:23;2.73;;;2.53;;
4957;SDS011;2494;51.872;9.688;2023-08-17T11:20:10;3.97;;;2.00;;
4957;SDS011;2494;51.872;9.688;2023-08-17T11:22:56;6.40;;;2.50;;
4957;SDS011;2494;51.872;9.688;2023-08-17T11:25:42;2.53;;;2.33;;
4957;SDS011;2494;51.872;9.688;2023-08-17T11:28:29;2.67;;;2.10;;
4957;SDS011;2494;51.872;9.688;2023-08-17T11:31:17;4.20;;;2.10;;
4957;SDS011;2494;51.872;9.688;2023-08-17T11:34:02;3.07;;;2.87;;
4957;SDS011;2494;51.872;9.688;2023-08-17T11:36:49;4.27;;;3.97;;
4957;SDS011;2494;51.872;9.688;2023-08-17T11:39:35;4.80;;;4.40;;
4957;SDS011;2494;51.872;9.688;2023-08-17T11:42:20;6.13;;;5.63;;
4957;SDS011;2494;51.872;9.688;2023-08-17T11:45:07;6.50;;;6.10;;
4957;SDS011;2494;51.872;9.688;2023-08-17T11:47:54;7.60;;;7.20;;
4957;SDS011;2494;51.872;9.688;2023-08-17T11:50:39;7.73;;;7.33;;
4957;SDS011;2494;51.872;9.688;2023-08-17T11:53:25;6.73;;;6.43;;
4957;SDS011;2494;51.872;9.688;2023-08-17T11:56:17;6.93;;;6.57;;
4957;SDS011;2494;51.872;9.688;2023-08-17T11:59:07;6.60;;;6.10;;
4957;SDS011;2494;51.872;9.688;2023-08-17T12:01:53;5.80;;;5.40;;
4957;SDS011;2494;51.872;9.688;2023-08-17T12:04:38;7.20;;;6.70;;
4957;SDS011;2494;51.872;9.688;2023-08-17T12:07:23;7.17;;;6.67;;
4957;SDS011;2494;51.872;9.688;2023-08-17T12:10:10;6.13;;;5.83;;
4957;SDS011;2494;51.872;9.688;2023-08-17T12:12:57;5.53;;;5.23;;
4957;SDS011;2494;51.872;9.688;2023-08-17T12:15:42;6.57;;;5.03;;
4957;SDS011;2494;51.872;9.688;2023-08-17T12:18:27;6.03;;;5.63;;
4957;SDS011;2494;51.872;9.688;2023-08-17T12:21:12;4.97;;;4.70;;
4957;SDS011;2494;51.872;9.688;2023-08-17T12:23:58;5.07;;;4.77;;
4957;SDS011;2494;51.872;9.688;2023-08-17T12:26:46;5.37;;;5.00;;
4957;SDS011;2494;51.872;9.688;2023-08-17T12:29:31;5.20;;;4.80;;
4957;SDS011;2494;51.872;9.688;2023-08-17T12:32:17;4.70;;;4.50;;
4957;SDS011;2494;51.872;9.688;2023-08-17T12:35:03;4.70;;;4.40;;
4957;SDS011;2494;51.872;9.688;2023-08-17T12:37:48;4.90;;;4.60;;
4957;SDS011;2494;51.872;9.688;2023-08-17T12:40:33;5.37;;;4.97;;
4957;SDS011;2494;51.872;9.688;2023-08-17T12:43:20;5.30;;;4.90;;
4957;SDS011;2494;51.872;9.688;2023-08-17T12:46:05;4.70;;;4.37;;
4957;SDS011;2494;51.872;9.688;2023-08-17T12:48:50;5.10;;;4.80;;
4957;SDS011;2494;51.872;9.688;2023-08-17T12:51:36;5.07;;;4.67;;
4957;SDS011;2494;51.872;9.688;2023-08-17T12:54:22;6.00;;;5.60;;
4957;SDS011;2494;51.872;9.688;2023-08-17T12:57:07;5.17;;;4.80;;
4957;SDS011;2494;51.872;9.688;2023-08-17T12:59:54;6.30;;;5.90;;
4957;SDS011;2494;51.872;9.688;2023-08-17T13:02:39;5.83;;;5.53;;
4957;SDS011;2494;51.872;9.688;2023-08-17T13:05:25;5.10;;;4.80;;
4957;SDS011;2494;51.872;9.688;2023-08-17T13:08:11;5.60;;;5.30;;
4957;SDS011;2494;51.872;9.688;2023-08-17T13:10:56;5.60;;;5.10;;
4957;SDS011;2494;51.872;9.688;2023-08-17T13:13:41;5.50;;;5.00;;
4957;SDS011;2494;51.872;9.688;2023-08-17T13:16:28;5.10;;;4.80;;
4957;SDS011;2494;51.872;9.688;2023-08-17T13:19:13;5.80;;;5.30;;
4957;SDS011;2494;51.872;9.688;2023-08-17T13:21:58;5.60;;;5.20;;
4957;SDS011;2494;51.872;9.688;2023-08-17T13:24:43;5.73;;;5.43;;
4957;SDS011;2494;51.872;9.688;2023-08-17T13:27:28;5.27;;;5.07;;
4957;SDS011;2494;51.872;9.688;2023-08-17T13:30:13;5.20;;;4.90;;
4957;SDS011;2494;51.872;9.688;2023-08-17T13:33:01;4.83;;;4.53;;
4957;SDS011;2494;51.872;9.688;2023-08-17T13:35:46;5.23;;;4.93;;
4957;SDS011;2494;51.872;9.688;2023-08-17T13:38:31;5.33;;;4.80;;
4957;SDS011;2494;51.872;9.688;2023-08-17T13:41:16;4.40;;;4.20;;
4957;SDS011;2494;51.872;9.688;2023-08-17T13:44:01;4.27;;;4.07;;
4957;SDS011;2494;51.872;9.688;2023-08-17T13:46:47;4.03;;;3.80;;
4957;SDS011;2494;51.872;9.688;2023-08-17T13:49:33;4.70;;;4.40;;
4957;SDS011;2494;51.872;9.688;2023-08-17T13:52:19;4.70;;;4.40;;
4957;SDS011;2494;51.872;9.688;2023-08-17T13:55:05;5.50;;;5.03;;
4957;SDS011;2494;51.872;9.688;2023-08-17T13:57:50;4.10;;;3.83;;
4957;SDS011;2494;51.872;9.688;2023-08-17T14:00:36;4.17;;;3.97;;
4957;SDS011;2494;51.872;9.688;2023-08-17T14:03:21;4.77;;;4.47;;
4957;SDS011;2494;51.872;9.688;2023-08-17T14:06:07;6.30;;;5.90;;
4957;SDS011;2494;51.872;9.688;2023-08-17T14:08:53;4.17;;;3.97;;
4957;SDS011;2494;51.872;9.688;2023-08-17T14:11:40;4.93;;;4.63;;
4957;SDS011;2494;51.872;9.688;2023-08-17T14:14:25;6.03;;;5.73;;
4957;SDS011;2494;51.872;9.688;2023-08-17T14:17:11;5.43;;;5.13;;
4957;SDS011;2494;51.872;9.688;2023-08-17T14:19:56;5.03;;;4.70;;
4957;SDS011;2494;51.872;9.688;2023-08-17T14:22:43;5.67;;;5.27;;
4957;SDS011;2494;51.872;9.688;2023-08-17T14:25:28;5.30;;;5.00;;
4957;SDS011;2494;51.872;9.688;2023-08-17T14:28:13;5.20;;;4.90;;
4957;SDS011;2494;51.872;9.688;2023-08-17T14:30:59;5.10;;;4.90;;
4957;SDS011;2494;51.872;9.688;2023-08-17T14:33:44;5.60;;;5.20;;
4957;SDS011;2494;51.872;9.688;2023-08-17T14:36:36;6.30;;;5.70;;
4957;SDS011;2494;51.872;9.688;2023-08-17T14:39:23;6.23;;;5.83;;
4957;SDS011;2494;51.872;9.688;2023-08-17T14:42:08;6.77;;;6.27;;
4957;SDS011;2494;51.872;9.688;2023-08-17T14:44:53;8.00;;;7.40;;
4957;SDS011;2494;51.872;9.688;2023-08-17T14:47:38;8.40;;;7.80;;
4957;SDS011;2494;51.872;9.688;2023-08-17T14:50:23;9.03;;;8.23;;
4957;SDS011;2494;51.872;9.688;2023-08-17T14:53:09;10.03;;;9.13;;
4957;SDS011;2494;51.872;9.688;2023-08-17T14:55:55;9.10;;;8.40;;
4957;SDS011;2494;51.872;9.688;2023-08-17T14:58:41;8.10;;;7.53;;
4957;SDS011;2494;51.872;9.688;2023-08-17T15:01:26;10.50;;;9.60;;
4957;SDS011;2494;51.872;9.688;2023-08-17T15:04:11;10.00;;;9.13;;
4957;SDS011;2494;51.872;9.688;2023-08-17T15:06:56;12.03;;;8.90;;
4957;SDS011;2494;51.872;9.688;2023-08-17T15:09:41;9.23;;;8.53;;
4957;SDS011;2494;51.872;9.688;2023-08-17T15:12:28;9.20;;;8.47;;
4957;SDS011;2494;51.872;9.688;2023-08-17T15:15:13;8.90;;;8.10;;
4957;SDS011;2494;51.872;9.688;2023-08-17T15:17:59;8.60;;;7.90;;
4957;SDS011;2494;51.872;9.688;2023-08-17T15:20:44;9.53;;;8.73;;
4957;SDS011;2494;51.872;9.688;2023-08-17T15:23:29;8.77;;;7.53;;
4957;SDS011;2494;51.872;9.688;2023-08-17T15:26:15;9.00;;;8.10;;
4957;SDS011;2494;51.872;9.688;2023-08-17T15:29:02;8.30;;;7.50;;
4957;SDS011;2494;51.872;9.688;2023-08-17T15:31:47;8.60;;;7.90;;
4957;SDS011;2494;51.872;9.688;2023-08-17T15:34:32;10.83;;;9.60;;
4957;SDS011;2494;51.872;9.688;2023-08-17T15:37:17;9.53;;;8.63;;
4957;SDS011;2494;51.872;9.688;2023-08-17T15:40:02;8.20;;;7.43;;
4957;SDS011;2494;51.872;9.688;2023-08-17T15:42:48;10.07;;;9.13;;
4957;SDS011;2494;51.872;9.688;2023-08-17T15:45:34;9.27;;;8.47;;
4957;SDS011;2494;51.872;9.688;2023-08-17T15:48:20;8.03;;;7.23;;
4957;SDS011;2494;51.872;9.688;2023-08-17T15:51:05;8.27;;;7.57;;
4957;SDS011;2494;51.872;9.688;2023-08-17T15:53:50;8.67;;;7.97;;
4957;SDS011;2494;51.872;9.688;2023-08-17T15:56:35;8.57;;;7.80;;
4957;SDS011;2494;51.872;9.688;2023-08-17T15:59:20;8.13;;;7.40;;
4957;SDS011;2494;51.872;9.688;2023-08-17T16:02:07;8.03;;;7.33;;
4957;SDS011;2494;51.872;9.688;2023-08-17T16:04:52;9.30;;;8.50;;
4957;SDS011;2494;51.872;9.688;2023-08-17T16:07:37;8.70;;;7.87;;
4957;SDS011;2494;51.872;9.688;2023-08-17T16:10:22;9.50;;;7.63;;
4957;SDS011;2494;51.872;9.688;2023-08-17T16:13:08;8.23;;;7.43;;
4957;SDS011;2494;51.872;9.688;2023-08-17T16:15:53;9.00;;;8.10;;
4957;SDS011;2494;51.872;9.688;2023-08-17T16:18:39;8.80;;;8.00;;
4957;SDS011;2494;51.872;9.688;2023-08-17T16:21:25;10.47;;;8.97;;
4957;SDS011;2494;51.872;9.688;2023-08-17T16:24:11;9.80;;;7.37;;
4957;SDS011;2494;51.872;9.688;2023-08-17T16:26:56;9.23;;;8.33;;
4957;SDS011;2494;51.872;9.688;2023-08-17T16:29:41;9.53;;;8.50;;
4957;SDS011;2494;51.872;9.688;2023-08-17T16:32:26;11.67;;;9.03;;
4957;SDS011;2494;51.872;9.688;2023-08-17T16:35:13;9.50;;;8.60;;
4957;SDS011;2494;51.872;9.688;2023-08-17T16:37:59;10.47;;;8.47;;
4957;SDS011;2494;51.872;9.688;2023-08-17T16:40:44;9.80;;;8.60;;
4957;SDS011;2494;51.872;9.688;2023-08-17T16:43:30;11.17;;;9.53;;
4957;SDS011;2494;51.872;9.688;2023-08-17T16:46:15;9.53;;;7.53;;
4957;SDS011;2494;51.872;9.688;2023-08-17T16:49:01;10.63;;;8.67;;
4957;SDS011;2494;51.872;9.688;2023-08-17T16:51:47;11.50;;;8.93;;
4957;SDS011;2494;51.872;9.688;2023-08-17T16:54:33;12.03;;;9.60;;
4957;SDS011;2494;51.872;9.688;2023-08-17T16:57:18;11.30;;;8.70;;
4957;SDS011;2494;51.872;9.688;2023-08-17T17:00:04;9.73;;;8.67;;